Time;durP1;ratioP1;P1;durP2;ratioP2;P2;SDS_P1;SDS_P2;PMS_P1;PMS_P2;Temp;Humidity;BMP_temperature;BMP_pressure;BME280_temperature;BME280_humidity;BME280_pressure;Samples;Min_cycle;Max_cycle;Signal;HPM_P1;HPM_P2
2022/07/01 00:01:39;;;;;;;4.55;1.20;;;;;;;14.55;100.00;98491.47;5126948;28;20046;-70
2022/07/01 00:04:05;;;;;;;3.95;1.50;;;;;;;14.51;100.00;98498.69;5127130;28;20303;-70
2022/07/01 00:06:31;;;;;;;4.32;1.77;;;;;;;14.58;100.00;98494.03;5126796;28;20022;-70
2022/07/01 00:08:56;;;;;;;2.55;1.33;;;;;;;14.57;100.00;98497.59;5127027;28;20046;-70
2022/07/01 00:11:21;;;;;;;2.10;0.93;;;;;;;14.53;100.00;98509.25;5126805;28;20031;-70
2022/07/01 00:13:47;;;;;;;2.60;0.85;;;;;;;14.44;100.00;98518.38;5126855;28;20246;-70
2022/07/01 00:16:12;;;;;;;1.30;0.85;;;;;;;14.44;100.00;98517.50;5126728;28;20015;-70
2022/07/01 00:18:38;;;;;;;3.55;1.02;;;;;;;14.37;100.00;98526.59;5126654;28;20019;-70
2022/07/01 00:21:04;;;;;;;1.75;1.10;;;;;;;14.47;100.00;98533.28;5126720;28;20337;-70
2022/07/01 00:23:30;;;;;;;1.55;1.00;;;;;;;14.55;100.00;98516.19;5126829;28;20028;-70
2022/07/01 00:25:56;;;;;;;4.25;1.15;;;;;;;14.51;100.00;98516.34;5121372;28;20099;-70
2022/07/01 00:28:22;;;;;;;3.03;1.20;;;;;;;14.60;100.00;98513.38;5116621;28;20032;-70
2022/07/01 00:30:47;;;;;;;3.97;1.20;;;;;;;14.61;100.00;98525.69;5126382;28;20019;-70
2022/07/01 00:33:12;;;;;;;1.15;1.05;;;;;;;14.61;100.00;98525.69;5126381;28;20031;-70
2022/07/01 00:35:38;;;;;;;1.33;1.17;;;;;;;14.63;100.00;98535.34;5125787;28;20019;-70
2022/07/01 00:38:03;;;;;;;2.25;1.40;;;;;;;14.61;100.00;98541.59;5126313;28;20030;-70
2022/07/01 00:40:29;;;;;;;4.75;1.77;;;;;;;14.60;100.00;98539.88;5126353;28;20215;-70
2022/07/01 00:42:54;;;;;;;2.22;1.30;;;;;;;14.66;100.00;98534.34;5126157;28;20023;-70
2022/07/01 00:45:20;;;;;;;3.20;2.00;;;;;;;14.70;100.00;98541.25;5126170;28;20251;-70
2022/07/01 00:47:45;;;;;;;6.13;1.67;;;;;;;14.72;100.00;98552.66;5126118;28;20072;-70
2022/07/01 00:50:14;;;;;;;2.40;1.05;;;;;;;14.68;100.00;98548.41;5126050;28;20329;-70
2022/07/01 00:52:41;;;;;;;3.05;1.63;;;;;;;14.68;100.00;98543.13;5126119;28;20019;-70
2022/07/01 00:55:11;;;;;;;3.40;1.63;;;;;;;14.68;100.00;98537.81;5125947;28;20030;-70
2022/07/01 00:57:39;;;;;;;4.82;1.55;;;;;;;14.67;100.00;98542.22;5125968;28;20050;-70
2022/07/01 01:00:21;;;;;;;4.68;1.67;;;;;;;14.67;100.00;98536.06;5125843;28;20248;-70
2022/07/01 01:02:46;;;;;;;2.03;1.15;;;;;;;14.62;100.00;98538.03;5125905;28;20019;-70
2022/07/01 01:05:12;;;;;;;3.00;1.48;;;;;;;14.60;100.00;98555.75;5125602;28;20315;-70
2022/07/01 01:07:37;;;;;;;2.95;1.42;;;;;;;14.59;100.00;98548.75;5125690;28;20132;-70
2022/07/01 01:10:03;;;;;;;2.40;1.40;;;;;;;14.56;100.00;98559.44;5125781;28;20033;-70
2022/07/01 01:12:29;;;;;;;1.55;1.20;;;;;;;14.57;100.00;98553.22;5125791;28;20058;-70
2022/07/01 01:14:56;;;;;;;1.52;1.10;;;;;;;14.57;100.00;98558.53;5125717;28;20030;-70
2022/07/01 01:17:22;;;;;;;2.50;1.20;;;;;;;14.58;100.00;98560.22;5125513;28;20043;-70
2022/07/01 01:19:49;;;;;;;4.10;1.35;;;;;;;14.61;100.00;98568.06;5125713;28;20027;-70
2022/07/01 01:22:16;;;;;;;1.88;1.33;;;;;;;14.60;100.00;98571.66;5125496;28;20023;-70
2022/07/01 01:24:43;;;;;;;3.28;1.92;;;;;;;14.50;100.00;98579.06;5125205;28;20039;-70
2022/07/01 01:27:08;;;;;;;1.70;1.25;;;;;;;14.54;100.00;98577.16;5116271;28;20262;-70
2022/07/01 01:29:38;;;;;;;5.97;1.98;;;;;;;14.48;100.00;98580.03;5125049;28;20031;-70
2022/07/01 01:32:05;;;;;;;6.07;1.70;;;;;;;14.54;100.00;98566.56;5125300;28;20020;-70
2022/07/01 01:34:38;;;;;;;2.75;1.60;;;;;;;14.53;100.00;98580.75;5125100;28;20051;-70
2022/07/01 01:37:05;;;;;;;6.40;1.20;;;;;;;14.55;100.00;98568.28;5124331;28;20020;-70
2022/07/01 01:39:31;;;;;;;4.47;1.95;;;;;;;14.51;100.00;98578.16;5125212;28;20034;-70
2022/07/01 01:41:56;;;;;;;3.38;1.75;;;;;;;14.55;100.00;98581.53;5125176;28;20016;-70
2022/07/01 01:44:22;;;;;;;4.70;2.47;;;;;;;14.51;100.00;98587.88;5124906;28;20070;-70
2022/07/01 01:46:47;;;;;;;3.67;1.55;;;;;;;14.50;100.00;98586.16;5124072;28;20023;-70
2022/07/01 01:49:13;;;;;;;3.70;2.05;;;;;;;14.54;100.00;98583.34;5124747;28;20068;-70
2022/07/01 01:51:38;;;;;;;4.82;2.13;;;;;;;14.49;100.00;98587.09;5125033;28;20031;-70
2022/07/01 01:54:04;;;;;;;4.75;2.83;;;;;;;14.50;100.00;98580.84;5124818;28;20357;-70
2022/07/01 01:56:31;;;;;;;543.75;46.70;;;;;;;14.54;100.00;98587.75;5124782;28;20368;-70
2022/07/01 01:58:57;;;;;;;8.95;4.18;;;;;;;14.51;100.00;98582.56;5124777;28;20290;-70
2022/07/01 02:01:23;;;;;;;5.15;3.72;;;;;;;14.69;100.00;98577.47;5124949;28;20016;-70
2022/07/01 02:03:50;;;;;;;7.47;4.10;;;;;;;14.72;100.00;98555.31;5124599;28;20027;-70
2022/07/01 02:06:17;;;;;;;6.85;3.50;;;;;;;14.74;100.00;98549.03;5124659;28;20027;-70
2022/07/01 02:08:42;;;;;;;6.15;3.60;;;;;;;14.70;100.00;98562.44;5124556;28;20019;-70
2022/07/01 02:11:08;;;;;;;5.63;3.17;;;;;;;14.51;100.00;98556.09;5124484;28;20038;-70
2022/07/01 02:13:35;;;;;;;7.65;2.80;;;;;;;14.48;100.00;98551.78;5124533;28;20020;-70
2022/07/01 02:16:01;;;;;;;6.25;2.65;;;;;;;14.58;100.00;98555.81;5124536;28;20146;-70
2022/07/01 02:18:27;;;;;;;8.68;2.95;;;;;;;14.65;100.00;98553.81;5124394;28;20027;-70
2022/07/01 02:20:53;;;;;;;8.77;2.20;;;;;;;14.63;100.00;98558.28;5124572;28;20024;-70
2022/07/01 02:23:19;;;;;;;4.60;2.08;;;;;;;14.58;100.00;98552.28;5124550;28;20087;-70
2022/07/01 02:25:46;;;;;;;8.13;2.40;;;;;;;14.59;100.00;98554.03;5119731;28;20073;-70
2022/07/01 02:28:12;;;;;;;4.32;2.35;;;;;;;14.66;100.00;98552.88;5120595;28;20027;-70
2022/07/01 02:30:37;;;;;;;4.53;2.15;;;;;;;14.65;100.00;98554.66;5120102;28;20023;-70
2022/07/01 02:33:07;;;;;;;6.35;2.38;;;;;;;14.63;100.00;98560.94;5124168;28;20026;-70
2022/07/01 02:35:34;;;;;;;6.25;2.45;;;;;;;14.58;100.00;98553.16;5124385;28;20027;-70
2022/07/01 02:37:59;;;;;;;5.28;2.80;;;;;;;14.64;100.00;98560.00;5124213;28;20060;-70
2022/07/01 02:40:25;;;;;;;5.15;2.50;;;;;;;14.63;100.00;98547.69;5124191;28;20039;-70
2022/07/01 02:42:50;;;;;;;6.03;2.78;;;;;;;14.60;100.00;98555.75;5124126;28;20052;-70
2022/07/01 02:45:16;;;;;;;6.40;3.22;;;;;;;14.62;100.00;98560.06;5124036;28;20028;-70
2022/07/01 02:47:41;;;;;;;13.65;4.20;;;;;;;14.53;100.00;98559.56;5123926;28;20211;-70
2022/07/01 02:50:10;;;;;;;5.00;2.40;;;;;;;14.49;100.00;98573.84;5124022;28;20042;-70
2022/07/01 02:52:36;;;;;;;6.35;2.67;;;;;;;14.46;100.00;98579.25;5124231;28;20020;-69
2022/07/01 02:55:04;;;;;;;8.88;2.80;;;;;;;14.41;100.00;98586.47;5124148;28;20030;-69
2022/07/01 02:57:29;;;;;;;3.97;2.45;;;;;;;14.46;100.00;98595.13;5124043;28;20050;-69
2022/07/01 02:59:55;;;;;;;4.88;2.97;;;;;;;14.44;100.00;98591.66;5127720;28;20317;-69
2022/07/01 03:02:21;;;;;;;4.35;2.60;;;;;;;14.40;100.00;98584.75;5128111;28;20090;-69
2022/07/01 03:04:48;;;;;;;11.13;3.35;;;;;;;14.35;100.00;98589.34;5128234;28;20315;-69
2022/07/01 03:07:14;;;;;;;8.48;3.00;;;;;;;14.45;100.00;98583.66;5127947;28;20023;-69
2022/07/01 03:09:40;;;;;;;5.70;3.10;;;;;;;14.43;100.00;98579.34;5128242;28;20034;-69
2022/07/01 03:12:25;;;;;;;8.70;3.25;;;;;;;14.36;100.00;98583.09;5128002;28;20023;-69
2022/07/01 03:14:51;;;;;;;5.43;2.60;;;;;;;14.42;100.00;98588.19;5127893;28;20248;-69
2022/07/01 03:17:17;;;;;;;6.88;3.55;;;;;;;14.40;100.00;98595.34;5127953;28;20334;-69
2022/07/01 03:19:42;;;;;;;9.35;2.90;;;;;;;14.33;100.00;98583.25;5127889;28;20023;-69
2022/07/01 03:22:08;;;;;;;8.63;3.75;;;;;;;14.27;100.00;98584.28;5127628;28;20215;-69
2022/07/01 03:24:33;;;;;;;8.95;4.55;;;;;;;14.29;100.00;98586.88;5127711;28;20124;-69
2022/07/01 03:26:59;;;;;;;6.13;4.30;;;;;;;14.25;100.00;98585.28;5118633;28;20024;-69
2022/07/01 03:29:24;;;;;;;8.13;4.25;;;;;;;14.30;100.00;98578.91;5121232;28;20020;-69
2022/07/01 03:31:50;;;;;;;7.72;4.60;;;;;;;14.34;100.00;98584.97;5120976;28;20026;-69
2022/07/01 03:34:15;;;;;;;11.82;4.68;;;;;;;14.35;100.00;98586.69;5127680;28;20025;-69
2022/07/01 03:36:40;;;;;;;10.77;5.53;;;;;;;14.29;100.00;98582.47;5127742;28;20015;-69
2022/07/01 03:39:06;;;;;;;9.30;4.72;;;;;;;14.24;100.00;98591.50;5127553;28;20346;-69
2022/07/01 03:41:31;;;;;;;18.30;5.28;;;;;;;14.16;100.00;98591.72;5127363;28;20039;-69
2022/07/01 03:43:56;;;;;;;9.60;4.32;;;;;;;14.21;100.00;98602.16;5127516;28;20031;-69
2022/07/01 03:46:22;;;;;;;10.45;5.00;;;;;;;14.23;100.00;98592.41;5127374;28;20047;-69
2022/07/01 03:48:47;;;;;;;8.63;4.80;;;;;;;14.20;100.00;98597.75;5127251;28;20253;-69
2022/07/01 03:51:12;;;;;;;7.20;4.57;;;;;;;14.21;100.00;98604.81;5127278;28;20138;-69
2022/07/01 03:56:21;;;;;;;11.32;4.80;;;;;;;14.26;100.00;98624.06;5127196;28;20372;-69
2022/07/01 03:58:47;;;;;;;8.48;4.60;;;;;;;14.17;100.00;98635.78;5127031;28;20027;-69
2022/07/01 04:01:12;;;;;;;7.85;4.60;;;;;;;14.18;100.00;98636.69;5127037;28;20034;-69
2022/07/01 04:03:37;;;;;;;7.20;4.35;;;;;;;14.36;100.00;98646.66;5127338;28;20085;-69
2022/07/01 04:06:03;;;;;;;11.05;5.35;;;;;;;14.35;100.00;98651.09;5126791;28;20024;-69
2022/07/01 04:08:28;;;;;;;7.70;4.90;;;;;;;14.42;100.00;98655.28;5126742;28;20083;-69
2022/07/01 04:10:56;;;;;;;8.70;4.85;;;;;;;14.50;100.00;98665.59;5126106;28;20020;-69
2022/07/01 04:13:21;;;;;;;10.48;5.20;;;;;;;14.40;100.00;98669.50;5127192;28;20019;-69
2022/07/01 04:15:47;;;;;;;10.50;4.65;;;;;;;14.43;100.00;98672.03;5126738;28;20042;-69
2022/07/01 04:18:12;;;;;;;8.35;3.90;;;;;;;14.47;100.00;98677.19;5126768;28;20090;-69
2022/07/01 04:20:38;;;;;;;8.13;4.60;;;;;;;14.33;100.00;98667.97;5125199;28;20085;-69
2022/07/01 04:23:03;;;;;;;5.47;3.45;;;;;;;14.44;100.00;98655.22;5125755;28;20023;-69
2022/07/01 04:25:29;;;;;;;8.85;3.53;;;;;;;14.40;100.00;98653.59;5122897;28;20114;-69
2022/07/01 04:27:57;;;;;;;8.55;4.18;;;;;;;14.31;100.00;98646.84;5117470;28;20045;-69
2022/07/01 04:30:22;;;;;;;7.97;4.22;;;;;;;14.27;100.00;98636.41;5125061;28;20050;-69
2022/07/01 04:32:47;;;;;;;7.07;3.85;;;;;;;14.30;100.00;98631.00;5125677;28;20080;-69
2022/07/01 04:35:14;;;;;;;9.32;4.43;;;;;;;14.25;100.00;98622.34;5124713;28;20027;-69
2022/07/01 04:37:40;;;;;;;8.82;4.13;;;;;;;14.23;100.00;98625.03;5118244;28;20032;-69
2022/07/01 04:40:06;;;;;;;8.80;3.75;;;;;;;14.28;100.00;98628.41;5124460;27;20131;-70
2022/07/01 04:42:31;;;;;;;7.30;4.00;;;;;;;14.28;100.00;98638.13;5127299;27;20034;-71
2022/07/01 04:44:57;;;;;;;11.77;4.35;;;;;;;14.27;100.00;98641.69;5126520;28;20211;-71
2022/07/01 04:47:23;;;;;;;12.07;4.40;;;;;;;14.28;100.00;98648.72;5108239;28;20028;-71
2022/07/01 04:49:48;;;;;;;6.97;3.90;;;;;;;14.23;100.00;98640.03;5126432;28;20023;-71
2022/07/01 04:52:14;;;;;;;7.95;4.10;;;;;;;14.22;100.00;98654.19;5126413;28;20087;-71
2022/07/01 04:54:41;;;;;;;7.72;3.85;;;;;;;14.19;100.00;98646.34;5126328;28;20087;-71
2022/07/01 04:57:06;;;;;;;9.85;4.93;;;;;;;14.15;100.00;98631.47;5126537;28;20019;-71
2022/07/01 04:59:32;;;;;;;19.60;4.43;;;;;;;14.17;100.00;98635.78;5126193;28;20315;-71
2022/07/01 05:01:58;;;;;;;8.75;4.10;;;;;;;14.14;100.00;98643.00;5126165;28;20311;-71
2022/07/01 05:04:24;;;;;;;9.60;4.43;;;;;;;14.24;100.00;98652.38;5126268;28;20024;-71
2022/07/01 05:06:49;;;;;;;9.70;4.40;;;;;;;14.26;100.00;98662.00;5126047;28;20049;-71
2022/07/01 05:09:15;;;;;;;10.30;3.95;;;;;;;14.23;100.00;98655.94;5126069;28;20019;-71
2022/07/01 05:11:40;;;;;;;7.90;4.10;;;;;;;14.20;100.00;98645.41;5126028;28;20047;-71
2022/07/01 05:14:07;;;;;;;6.20;4.05;;;;;;;14.15;100.00;98631.47;5126176;28;20090;-71
2022/07/01 05:16:33;;;;;;;6.93;4.70;;;;;;;14.43;100.00;98634.97;5125923;28;20019;-71
2022/07/01 05:21:58;;;;;;;9.95;5.10;;;;;;;14.59;100.00;98644.09;5125794;28;20060;-71
2022/07/01 05:24:27;;;;;;;9.70;4.85;;;;;;;14.54;100.00;98636.31;5125800;28;20032;-71
2022/07/01 05:26:52;;;;;;;10.20;5.47;;;;;;;14.50;100.00;98644.41;5125549;28;20020;-71
2022/07/01 05:29:18;;;;;;;7.15;4.18;;;;;;;14.53;100.00;98649.59;5125677;28;20083;-71
2022/07/01 05:31:43;;;;;;;8.75;3.78;;;;;;;14.41;100.00;98655.31;5125898;28;20184;-71
2022/07/01 05:34:09;;;;;;;10.23;4.13;;;;;;;14.35;100.00;98651.09;5125610;28;20338;-71
2022/07/01 05:36:34;;;;;;;5.80;3.78;;;;;;;14.48;100.00;98662.13;5123873;28;20057;-71
2022/07/01 05:39:00;;;;;;;8.52;3.53;;;;;;;14.40;100.00;98658.91;5125289;28;20207;-71
2022/07/01 05:41:26;;;;;;;6.47;3.47;;;;;;;14.45;100.00;98656.94;5125719;28;20023;-71
2022/07/01 05:43:51;;;;;;;6.45;3.20;;;;;;;14.43;100.00;98659.63;5125393;28;20019;-71
2022/07/01 05:46:16;;;;;;;7.82;3.28;;;;;;;14.48;100.00;98662.13;5125249;28;20069;-71
2022/07/01 05:48:42;;;;;;;7.13;3.05;;;;;;;14.51;100.00;98667.31;5125330;28;20331;-71
2022/07/01 05:51:07;;;;;;;5.85;2.90;;;;;;;14.79;100.00;98662.78;5125266;28;20023;-71
2022/07/01 05:53:32;;;;;;;9.77;3.80;;;;;;;15.03;100.00;98656.63;5125469;28;20023;-71
2022/07/01 05:55:58;;;;;;;10.55;3.80;;;;;;;15.23;100.00;98654.94;5125135;28;20025;-71
2022/07/01 05:58:24;;;;;;;6.72;3.10;;;;;;;15.43;100.00;98662.19;5125115;28;20034;-71
2022/07/01 06:00:50;;;;;;;4.88;2.83;;;;;;;15.47;99.25;98674.41;5125087;28;20327;-71
2022/07/01 06:03:16;;;;;;;5.00;2.80;;;;;;;15.73;100.00;98676.06;5125072;28;20030;-71
2022/07/01 06:05:42;;;;;;;7.63;3.95;;;;;;;15.85;98.86;98671.13;5125198;28;20254;-71
2022/07/01 06:08:08;;;;;;;11.80;4.38;;;;;;;16.04;95.99;98666.78;5124960;28;20238;-71
2022/07/01 06:10:34;;;;;;;6.35;4.10;;;;;;;16.05;95.11;98657.06;5125299;28;20020;-71
2022/07/01 06:13:00;;;;;;;8.98;5.28;;;;;;;16.14;95.89;98657.53;5124924;28;20050;-71
2022/07/01 06:15:26;;;;;;;9.10;4.70;;;;;;;16.01;95.55;98644.84;5124922;28;20042;-71
2022/07/01 06:17:52;;;;;;;6.45;3.75;;;;;;;16.00;96.84;98635.13;5124788;28;20019;-71
2022/07/01 06:20:17;;;;;;;6.00;3.38;;;;;;;16.10;96.29;98640.00;5124812;28;20027;-71
2022/07/01 06:22:43;;;;;;;10.02;4.28;;;;;;;16.10;96.50;98645.31;5124745;28;20257;-71
2022/07/01 06:25:09;;;;;;;9.80;4.68;;;;;;;16.09;95.90;98648.03;5124599;28;20042;-71
2022/07/01 06:27:42;;;;;;;9.02;4.60;;;;;;;15.94;95.49;98644.22;5124549;28;20219;-71
2022/07/01 06:30:09;;;;;;;8.32;3.88;;;;;;;15.97;97.22;98662.66;5124633;28;20023;-71
2022/07/01 06:32:35;;;;;;;7.03;4.57;;;;;;;15.84;97.46;98668.53;5124484;28;20053;-71
2022/07/01 06:35:00;;;;;;;5.70;3.15;;;;;;;15.96;97.27;98683.97;5124239;28;20214;-71
2022/07/01 06:37:25;;;;;;;9.52;4.00;;;;;;;15.92;96.60;98693.88;5124619;28;20030;-71
2022/07/01 06:39:51;;;;;;;9.88;3.13;;;;;;;15.93;96.16;98690.28;5124514;28;20024;-71
2022/07/01 06:42:16;;;;;;;5.88;3.40;;;;;;;15.99;96.10;98698.00;5124500;28;20019;-71
2022/07/01 06:44:42;;;;;;;7.78;3.10;;;;;;;16.12;95.06;98714.28;5124488;28;20019;-71
2022/07/01 06:47:07;;;;;;;7.88;2.58;;;;;;;16.04;94.48;98717.25;5124404;28;20028;-71
2022/07/01 06:49:33;;;;;;;3.60;2.50;;;;;;;15.89;95.90;98715.22;5124475;28;20023;-71
2022/07/01 06:51:58;;;;;;;6.72;2.70;;;;;;;15.87;96.27;98716.19;5124423;28;20023;-71
2022/07/01 06:54:23;;;;;;;9.57;3.55;;;;;;;16.09;96.54;98723.25;5124652;28;20070;-71
2022/07/01 06:56:49;;;;;;;3.53;1.95;;;;;;;15.94;94.17;98729.16;5124382;28;20019;-71
2022/07/01 06:59:15;;;;;;;4.97;1.85;;;;;;;15.93;94.86;98724.78;5124379;28;20027;-71
2022/07/01 07:01:41;;;;;;;7.72;1.92;;;;;;;15.82;94.19;98724.31;5124576;28;20028;-71
2022/07/01 07:04:06;;;;;;;4.38;1.50;;;;;;;15.76;94.26;98734.31;5124302;28;20024;-71
2022/07/01 07:06:31;;;;;;;3.20;1.88;;;;;;;15.78;96.18;98741.28;5124164;28;20022;-71
2022/07/01 07:08:57;;;;;;;3.05;2.00;;;;;;;15.80;94.45;98731.50;5124309;28;20055;-71
2022/07/01 07:11:22;;;;;;;2.72;1.88;;;;;;;15.90;95.35;98726.69;5124229;28;20019;-71
2022/07/01 07:13:48;;;;;;;5.47;1.85;;;;;;;16.01;95.68;98722.66;5124463;28;20020;-71
2022/07/01 07:16:13;;;;;;;2.70;1.77;;;;;;;16.22;96.21;98719.16;5124219;28;20020;-71
2022/07/01 07:18:39;;;;;;;2.72;1.60;;;;;;;16.24;94.60;98717.34;5124430;28;20020;-71
2022/07/01 07:21:04;;;;;;;6.35;2.20;;;;;;;16.46;95.18;98701.41;5124140;28;20049;-71
2022/07/01 07:23:30;;;;;;;3.60;1.65;;;;;;;16.68;93.43;98696.91;5124232;28;20019;-71
2022/07/01 07:25:56;;;;;;;4.65;2.00;;;;;;;16.88;90.66;98700.44;5123987;28;20035;-71
2022/07/01 07:28:22;;;;;;;2.20;1.30;;;;;;;16.88;90.67;98710.19;5124109;28;20027;-71
2022/07/01 07:30:47;;;;;;;7.68;1.80;;;;;;;16.83;88.13;98699.75;5124070;28;20278;-71
2022/07/01 07:33:12;;;;;;;4.57;1.92;;;;;;;16.81;89.72;98698.97;5124043;28;20028;-71
2022/07/01 07:35:38;;;;;;;5.93;1.88;;;;;;;16.78;90.75;98701.78;5124028;28;20030;-71
2022/07/01 07:38:03;;;;;;;9.30;1.80;;;;;;;16.98;90.63;98695.56;5124061;28;20215;-71
2022/07/01 07:40:28;;;;;;;4.22;1.67;;;;;;;17.19;89.96;98691.97;5124066;28;20083;-71
2022/07/01 07:42:54;;;;;;;4.88;2.05;;;;;;;17.52;88.21;98698.44;5123923;28;20020;-71
2022/07/01 07:45:20;;;;;;;7.30;2.25;;;;;;;17.19;87.79;98697.28;5124587;28;20023;-71
2022/07/01 07:47:54;;;;;;;3.22;2.08;;;;;;;17.29;88.93;98711.91;5127718;28;20065;-71
2022/07/01 07:50:20;;;;;;;4.47;2.08;;;;;;;17.58;87.54;98707.94;5127602;28;20319;-71
2022/07/01 07:52:46;;;;;;;4.20;1.58;;;;;;;17.98;85.87;98703.38;5127618;28;20137;-71
2022/07/01 07:55:11;;;;;;;2.13;1.10;;;;;;;19.81;81.01;98719.63;5127490;28;20024;-71
2022/07/01 07:57:37;;;;;;;0.82;0.50;;;;;;;19.72;78.64;98714.78;5127504;28;20023;-71
2022/07/01 08:00:09;;;;;;;4.70;1.55;;;;;;;19.29;79.19;98712.69;5127481;28;20066;-71
2022/07/01 08:02:34;;;;;;;7.28;2.17;;;;;;;18.52;79.27;98715.81;5127644;28;20030;-71
2022/07/01 08:04:59;;;;;;;3.25;1.80;;;;;;;18.24;81.03;98715.41;5127346;28;20019;-71
2022/07/01 08:07:25;;;;;;;3.95;1.60;;;;;;;18.03;80.02;98719.13;5127520;28;20031;-71
2022/07/01 08:09:50;;;;;;;6.07;1.65;;;;;;;17.63;83.67;98711.28;5127218;28;20276;-71
2022/07/01 08:12:16;;;;;;;3.25;1.70;;;;;;;17.40;84.98;98719.41;5127208;28;20023;-71
2022/07/01 08:14:42;;;;;;;6.63;1.63;;;;;;;17.72;85.69;98726.81;5127194;28;20327;-71
2022/07/01 08:17:07;;;;;;;4.30;1.70;;;;;;;18.12;84.76;98722.19;5127144;28;20064;-71
2022/07/01 08:19:33;;;;;;;5.38;1.67;;;;;;;18.37;83.97;98724.56;5127060;28;20026;-71
2022/07/01 08:21:58;;;;;;;7.93;1.90;;;;;;;18.83;81.53;98726.66;5126997;28;20024;-71
2022/07/01 08:24:24;;;;;;;2.65;1.63;;;;;;;18.94;80.71;98730.50;5126831;28;20077;-71
2022/07/01 08:26:49;;;;;;;5.07;1.73;;;;;;;19.44;79.09;98732.38;5126786;28;20082;-71
2022/07/01 08:29:15;;;;;;;9.85;2.10;;;;;;;19.20;79.98;98738.03;5126844;28;20027;-71
2022/07/01 08:31:40;;;;;;;3.55;1.60;;;;;;;19.07;78.65;98741.41;5126841;28;20030;-71
2022/07/01 08:34:06;;;;;;;5.22;1.70;;;;;;;19.11;79.17;98745.66;5108611;28;20026;-71
2022/07/01 08:36:32;;;;;;;4.97;1.65;;;;;;;18.81;78.56;98749.88;5126746;28;20016;-71
2022/07/01 08:38:57;;;;;;;3.30;1.60;;;;;;;18.38;80.99;98756.47;5126726;28;20246;-71
2022/07/01 08:41:23;;;;;;;2.55;1.33;;;;;;;18.29;81.60;98751.53;5126662;28;20371;-71
2022/07/01 08:43:48;;;;;;;5.78;1.30;;;;;;;18.44;82.08;98756.16;5126578;28;20030;-71
2022/07/01 08:46:14;;;;;;;3.08;1.27;;;;;;;18.42;79.76;98757.19;5126406;28;20027;-71
2022/07/01 08:48:44;;;;;;;4.05;1.60;;;;;;;18.69;81.21;98766.47;5126509;28;20077;-71
2022/07/01 08:51:10;;;;;;;2.58;1.20;;;;;;;18.85;79.25;98772.78;5126707;28;20234;-71
2022/07/01 08:53:36;;;;;;;3.03;1.63;;;;;;;19.34;77.50;98760.50;5126433;28;20086;-71
2022/07/01 08:58:48;;;;;;;4.05;1.38;;;;;;;20.34;74.46;98756.75;5126354;28;20022;-71
2022/07/01 09:01:21;;;;;;;2.33;1.15;;;;;;;21.38;70.99;98769.34;5126207;28;20303;-71
2022/07/01 09:03:48;;;;;;;6.70;0.80;;;;;;;23.51;63.90;98771.41;5126187;28;20031;-71
2022/07/01 09:06:17;;;;;;;4.00;0.80;;;;;;;24.32;60.79;98770.94;5126098;28;20031;-71
2022/07/01 09:08:44;;;;;;;1.35;0.85;;;;;;;22.83;60.50;98761.75;5126117;28;20023;-71
2022/07/01 09:11:17;;;;;;;2.92;1.38;;;;;;;22.32;65.39;98765.13;5126034;28;20027;-71
2022/07/01 09:13:44;;;;;;;16.10;1.42;;;;;;;21.98;65.38;98765.56;5126025;28;20020;-71
2022/07/01 09:16:16;;;;;;;1.60;1.00;;;;;;;22.21;63.10;98762.28;5125965;28;20020;-71
2022/07/01 09:19:02;;;;;;;5.15;0.88;;;;;;;22.17;64.00;98771.47;5125918;28;20019;-71
2022/07/01 09:21:31;;;;;;;0.60;0.60;;;;;;;22.91;62.98;98775.53;5125922;28;20253;-71
2022/07/01 09:24:01;;;;;;;5.05;0.60;;;;;;;23.65;60.19;98771.28;5125929;28;20226;-71
2022/07/01 09:26:27;;;;;;;4.22;0.57;;;;;;;24.25;58.06;98772.34;5126019;28;20051;-71
2022/07/01 09:28:55;;;;;;;3.95;1.05;;;;;;;25.14;56.23;98788.09;5125667;28;20024;-71
2022/07/01 09:31:21;;;;;;;3.58;0.57;;;;;;;25.44;53.17;98773.28;5125907;28;20019;-71
2022/07/01 09:34:02;;;;;;;4.82;1.05;;;;;;;24.19;56.79;98764.72;5125606;28;20144;-71
2022/07/01 09:36:28;;;;;;;2.90;1.00;;;;;;;23.35;58.85;98770.75;5125846;28;20188;-71
2022/07/01 09:38:53;;;;;;;5.55;1.00;;;;;;;24.55;57.05;98767.41;5125492;28;20043;-71
2022/07/01 09:41:23;;;;;;;3.88;1.00;;;;;;;25.23;55.56;98776.63;5125438;28;20019;-71
2022/07/01 09:43:48;;;;;;;3.50;0.88;;;;;;;24.16;56.25;98754.19;5125421;28;20024;-71
2022/07/01 09:46:14;;;;;;;1.20;0.50;;;;;;;24.27;54.70;98759.63;5125282;28;20095;-71
2022/07/01 09:48:39;;;;;;;2.70;0.70;;;;;;;23.54;58.04;98765.78;5125332;28;20087;-71
2022/07/01 09:51:06;;;;;;;1.38;0.70;;;;;;;22.53;60.48;98766.47;5125304;28;20030;-71
2022/07/01 09:53:32;;;;;;;0.82;0.52;;;;;;;22.23;62.55;98765.72;5125178;28;20080;-71
2022/07/01 09:55:58;;;;;;;1.13;0.45;;;;;;;21.91;63.18;98764.22;5125471;28;20307;-71
2022/07/01 09:58:23;;;;;;;2.08;0.93;;;;;;;21.65;64.71;98765.81;5125157;28;20087;-71
2022/07/01 10:00:50;;;;;;;1.58;0.63;;;;;;;22.36;62.36;98766.66;5125141;28;20211;-71
2022/07/01 10:03:18;;;;;;;1.83;0.60;;;;;;;23.31;60.06;98769.22;5125366;28;20020;-71
2022/07/01 10:06:05;;;;;;;48.33;2.25;;;;;;;25.15;56.17;98770.94;5124920;28;20050;-71
2022/07/01 10:08:52;;;;;;;331.77;26.65;;;;;;;23.82;56.81;98759.38;5124559;28;20055;-71
2022/07/01 10:11:49;;;;;;;1.70;0.70;;;;;;;24.99;55.76;98778.47;5124939;28;20023;-71
2022/07/01 10:14:16;;;;;;;3.35;0.80;;;;;;;25.45;54.00;98781.25;5124944;28;20274;-71
2022/07/01 10:16:45;;;;;;;4.32;0.90;;;;;;;23.94;54.69;98769.22;5124958;28;20078;-71
2022/07/01 10:19:28;;;;;;;8.07;0.77;;;;;;;25.47;50.84;98770.34;5124814;28;20019;-71
2022/07/01 10:21:56;;;;;;;1.23;0.60;;;;;;;24.07;53.85;98765.59;5124336;28;20019;-71
2022/07/01 10:24:23;;;;;;;4.55;0.70;;;;;;;23.15;55.12;98763.13;5123929;28;20043;-71
2022/07/01 10:26:48;;;;;;;4.90;0.80;;;;;;;22.87;56.48;98761.44;5124290;28;20192;-71
2022/07/01 10:29:36;;;;;;;5.35;1.20;;;;;;;23.80;56.62;98767.53;5124603;28;20097;-71
2022/07/01 10:32:31;;;;;;;3.70;0.77;;;;;;;23.12;54.66;98755.28;5124718;28;20026;-71
2022/07/01 10:35:04;;;;;;;1.73;0.90;;;;;;;23.65;56.61;98752.47;5101268;28;20071;-72
2022/07/01 10:37:30;;;;;;;2.15;0.63;;;;;;;23.52;55.50;98754.31;5123654;28;20016;-72
2022/07/01 10:40:00;;;;;;;11.98;4.40;;;;;;;22.88;58.28;98756.94;5123619;28;20046;-72
2022/07/01 10:42:33;;;;;;;2.80;1.15;;;;;;;22.40;60.63;98752.94;5124111;28;20019;-72
2022/07/01 10:45:07;;;;;;;2.28;1.05;;;;;;;22.12;62.16;98754.84;5124611;28;20188;-72
2022/07/01 10:47:33;;;;;;;4.90;0.90;;;;;;;21.89;61.47;98755.44;5122606;28;20027;-72
2022/07/01 10:50:08;;;;;;;2.22;0.82;;;;;;;21.57;61.60;98764.59;5123349;28;20039;-72
2022/07/01 10:52:33;;;;;;;5.38;1.23;;;;;;;21.54;63.59;98759.41;5123506;28;20226;-72
2022/07/01 10:55:00;;;;;;;1.85;0.80;;;;;;;23.51;57.51;98760.66;5123504;28;20027;-72
2022/07/01 10:57:29;;;;;;;3.45;0.90;;;;;;;24.18;55.11;98763.00;5123430;28;20019;-72
2022/07/01 10:59:57;;;;;;;3.60;0.85;;;;;;;24.07;52.83;98759.38;5123272;28;20030;-72
2022/07/01 11:02:28;;;;;;;2.70;0.80;;;;;;;23.19;56.72;98764.63;5123164;28;20032;-72
2022/07/01 11:04:56;;;;;;;2.28;0.70;;;;;;;23.31;58.01;98763.84;5118579;28;20027;-72
2022/07/01 11:07:33;;;;;;;3.47;0.93;;;;;;;22.68;59.80;98770.81;5105535;28;20032;-72
2022/07/01 11:10:02;;;;;;;2.85;0.90;;;;;;;22.62;59.21;98769.41;5123334;28;20024;-72
2022/07/01 11:12:28;;;;;;;5.28;0.82;;;;;;;22.37;60.79;98766.56;5122971;28;20043;-72
2022/07/01 11:14:58;;;;;;;2.15;0.90;;;;;;;22.28;60.43;98764.50;5123317;28;20032;-72
2022/07/01 11:17:24;;;;;;;1.20;0.80;;;;;;;23.12;60.01;98779.44;5123555;28;20299;-72
2022/07/01 11:19:57;;;;;;;4.72;0.77;;;;;;;24.10;57.94;98770.75;5124625;28;20016;-72
2022/07/01 11:22:28;;;;;;;1.52;1.05;;;;;;;24.66;56.12;98775.59;5127240;28;20034;-72
2022/07/01 11:24:56;;;;;;;2.08;0.80;;;;;;;25.44;51.44;98773.28;5126701;28;20067;-72
2022/07/01 11:27:22;;;;;;;2.15;1.10;;;;;;;24.38;54.76;98770.50;5127036;28;20028;-72
2022/07/01 11:29:52;;;;;;;5.35;0.80;;;;;;;23.17;55.83;98771.97;5127162;28;20026;-72
2022/07/01 11:32:37;;;;;;;4.03;1.15;;;;;;;22.54;55.50;98761.00;5127100;28;20019;-72
2022/07/01 11:39:21;;;;;;;2.00;0.73;;;;;;;22.60;57.67;98770.47;5127029;28;20038;-72
2022/07/01 11:40:50;;;;;;;2.97;1.00;;;;;;;22.16;59.13;98770.63;5126739;28;20054;-72